Rockland, Canada
Current Conditions -  °F | °C
As of 10:00 AM on Wednesday 22 Oct 2014 (Local Time) from CYND Reporting Station
Broken Clouds Broken Clouds  
Wind Chill: 42°   Ceiling: 3500
Heat Index: 46°   Visibility: 15mi
Dew Point: 36°   Wind: 8mph
Humidity: 66%   Direction: 20°NNE
Pressure: 30.29"   Gusts: NA
Location:  45.53°N, 75.28°W
Report Text: CYND 221400Z 02007KT 15SM BKN035 BKN060 08/02 A3029 RMK SC5SC1 SLP259
Loading
Personal Weather Stations






























Interactive Weather Map
Tropical Storm Tracking
New forecast layout! Learn more

10-Day Weather Forecast

Advertisements
Track Severe Weather on mobile